Time;durP1;ratioP1;P1;durP2;ratioP2;P2;SDS_P1;SDS_P2;PMS_P1;PMS_P2;Temp;Humidity;BMP_temperature;BMP_pressure;BME280_temperature;BME280_humidity;BME280_pressure;Samples;Min_cycle;Max_cycle;Signal;HPM_P1;HPM_P2
2024/02/25 00:03:01;;;;;;;;;73.00;61.60;;;;;10.91;100.00;98253.41;6074895;28;96676;-54
2024/02/25 00:06:05;;;;;;;;;74.00;63.00;;;;;10.90;100.00;98249.06;6071806;28;96392;-54
2024/02/25 00:09:09;;;;;;;;;74.00;60.40;;;;;10.88;100.00;98253.91;6050214;28;97343;-54
2024/02/25 00:12:13;;;;;;;;;74.60;59.00;;;;;10.89;100.00;98233.97;6051076;28;96912;-54
2024/02/25 00:15:16;;;;;;;;;74.00;60.40;;;;;10.88;100.00;98239.59;6051470;28;96323;-54
2024/02/25 00:18:19;;;;;;;;;75.00;61.75;;;;;10.83;100.00;98243.84;6051029;28;96354;-54
2024/02/25 00:21:23;;;;;;;;;77.00;66.40;;;;;10.69;100.00;98239.78;6033086;28;96403;-55
2024/02/25 00:24:27;;;;;;;;;81.60;68.00;;;;;10.69;100.00;98238.94;6052941;28;96686;-55
2024/02/25 00:27:30;;;;;;;;;75.00;62.50;;;;;10.65;100.00;98238.59;6049456;28;99335;-55
2024/02/25 00:30:34;;;;;;;;;77.00;65.60;;;;;10.56;100.00;98239.19;6068817;28;96553;-54
2024/02/25 00:33:37;;;;;;;;;77.80;64.00;;;;;10.56;100.00;98240.00;6041730;28;96437;-54
2024/02/25 00:36:40;;;;;;;;;78.80;66.80;;;;;10.53;100.00;98245.06;6033216;28;98969;-56
2024/02/25 00:39:45;;;;;;;;;78.00;65.25;;;;;10.54;100.00;98249.41;6072379;28;96962;-55
2024/02/25 00:42:48;;;;;;;;;79.00;65.00;;;;;10.52;100.00;98255.03;6073990;28;96427;-54
2024/02/25 00:45:51;;;;;;;;;77.00;67.40;;;;;10.51;100.00;98242.59;6073778;28;96301;-54
2024/02/25 00:48:54;;;;;;;;;78.50;67.75;;;;;10.49;100.00;98250.13;6071729;28;96981;-54
2024/02/25 00:51:57;;;;;;;;;76.80;64.20;;;;;10.44;100.00;98241.91;6071015;28;96838;-54
2024/02/25 00:55:02;;;;;;;;;75.00;62.20;;;;;10.40;100.00;98236.19;6050129;28;96945;-55
2024/02/25 00:58:06;;;;;;;;;75.00;58.40;;;;;10.39;100.00;98233.72;6050638;28;96471;-54
2024/02/25 01:01:14;;;;;;;;;77.00;65.00;;;;;10.32;100.00;98241.91;6050782;28;96381;-54
2024/02/25 01:04:19;;;;;;;;;73.75;62.00;;;;;10.28;100.00;98231.84;6062898;28;97035;-54
2024/02/25 01:07:22;;;;;;;;;74.75;61.00;;;;;10.20;100.00;98230.34;6072242;28;96464;-54
2024/02/25 01:10:26;;;;;;;;;77.00;63.00;;;;;10.24;100.00;98228.00;6073462;28;96944;-54
2024/02/25 01:13:29;;;;;;;;;76.60;63.40;;;;;10.20;100.00;98230.34;6073649;28;96979;-55
2024/02/25 01:16:33;;;;;;;;;75.20;62.80;;;;;10.14;100.00;98228.56;6073641;28;96459;-55
2024/02/25 01:19:39;;;;;;;;;77.75;65.75;;;;;10.05;100.00;98224.59;6056300;28;96443;-54
2024/02/25 01:22:42;;;;;;;;;69.50;57.25;;;;;9.99;100.00;98217.44;6056462;28;96310;-54
2024/02/25 01:25:46;;;;;;;;;73.00;60.20;;;;;9.71;100.00;98193.09;6051065;28;96505;-53
2024/02/25 01:28:49;;;;;;;;;72.00;58.80;;;;;9.83;100.00;98212.72;6049625;28;96317;-54
2024/02/25 01:31:56;;;;;;;;;72.00;59.00;;;;;9.79;100.00;98201.63;6049322;28;96843;-54
2024/02/25 01:34:59;;;;;;;;;72.00;55.00;;;;;9.62;100.00;98191.78;6049715;28;96557;-55
2024/02/25 01:38:02;;;;;;;;;76.00;63.00;;;;;9.74;100.00;98216.81;6051060;28;96305;-54
2024/02/25 01:41:06;;;;;;;;;70.60;55.60;;;;;9.75;100.00;98208.53;6070050;28;98458;-53
2024/02/25 01:44:11;;;;;;;;;73.00;59.00;;;;;9.70;100.00;98207.59;6055713;28;98981;-54
2024/02/25 01:47:14;;;;;;;;;73.00;61.00;;;;;9.77;100.00;98217.22;6046214;28;98494;-54
2024/02/25 01:50:17;;;;;;;;;72.40;60.40;;;;;9.80;100.00;98211.34;6015438;28;98847;-54
2024/02/25 01:53:22;;;;;;;;;73.00;60.60;;;;;9.76;100.00;98220.94;6055420;28;96352;-54
2024/02/25 01:56:26;;;;;;;;;76.50;62.00;;;;;9.77;100.00;98219.91;6024082;29;96563;-53
2024/02/25 01:59:30;;;;;;;;;73.80;59.00;;;;;9.78;100.00;98229.59;6008669;29;96605;-54
2024/02/25 02:02:33;;;;;;;;;75.25;60.00;;;;;9.79;100.00;98223.16;6019713;29;96501;-57
2024/02/25 02:05:37;;;;;;;;;74.00;58.00;;;;;9.77;100.00;98214.50;6013007;28;96879;-57
2024/02/25 02:08:40;;;;;;;;;72.75;56.50;;;;;9.74;100.00;98209.56;6066421;28;96278;-57
2024/02/25 02:11:56;;;;;;;;;71.25;57.00;;;;;9.74;100.00;98217.66;6043344;28;96362;-57
2024/02/25 02:14:59;;;;;;;;;70.75;55.50;;;;;9.77;100.00;98222.59;6043202;28;96330;-58
2024/02/25 02:18:03;;;;;;;;;70.00;57.00;;;;;9.76;100.00;98220.94;6042370;28;97506;-58
2024/02/25 02:21:09;;;;;;;;;70.00;55.00;;;;;9.76;100.00;98228.19;6057563;28;96461;-58
2024/02/25 02:24:15;;;;;;;;;74.00;59.75;;;;;9.75;100.00;98231.94;6044911;28;96407;-58
2024/02/25 02:27:18;;;;;;;;;74.20;59.20;;;;;9.74;100.00;98222.22;6019191;29;96994;-58
2024/02/25 02:30:21;;;;;;;;;70.80;54.20;;;;;9.73;100.00;98229.47;6019461;29;96593;-58
2024/02/25 02:33:24;;;;;;;;;73.50;59.00;;;;;9.71;100.00;98236.16;6019178;29;96927;-58
2024/02/25 02:36:29;;;;;;;;;73.40;57.00;;;;;9.66;100.00;98222.56;6059141;28;96356;-58
2024/02/25 02:39:32;;;;;;;;;70.00;55.00;;;;;9.60;100.00;98226.16;6064355;28;96316;-58
2024/02/25 02:42:36;;;;;;;;;71.50;57.00;;;;;9.57;100.00;98227.47;6043646;28;96243;-58
2024/02/25 02:45:40;;;;;;;;;72.80;58.80;;;;;9.54;100.00;98231.44;6059262;28;96453;-58
2024/02/25 02:48:43;;;;;;;;;73.40;60.40;;;;;9.56;100.00;98247.34;6070073;28;97431;-58
2024/02/25 02:51:48;;;;;;;;;70.00;57.75;;;;;9.38;100.00;98226.69;6056045;28;96464;-58
2024/02/25 02:54:51;;;;;;;;;72.00;55.75;;;;;9.37;100.00;98264.59;6046215;28;96275;-58
2024/02/25 02:57:54;;;;;;;;;70.00;53.00;;;;;9.33;100.00;98240.03;6046726;28;96479;-58
2024/02/25 03:00:58;;;;;;;;;70.00;56.40;;;;;9.35;100.00;98255.94;6053963;28;96565;-58
2024/02/25 03:04:01;;;;;;;;;71.00;55.00;;;;;9.30;100.00;98256.63;6028175;28;96898;-58
2024/02/25 03:07:06;;;;;;;;;73.00;57.80;;;;;9.26;100.00;98251.94;6046100;28;96325;-58
2024/02/25 03:10:13;;;;;;;;;70.00;55.33;;;;;9.22;100.00;98251.56;6046375;28;96423;-58
2024/02/25 03:13:16;;;;;;;;;71.00;56.50;;;;;9.20;100.00;98248.28;6068693;28;96425;-58
2024/02/25 03:16:20;;;;;;;;;72.80;56.20;;;;;9.16;100.00;98248.97;6075586;28;96332;-58
2024/02/25 03:19:23;;;;;;;;;72.40;57.80;;;;;9.21;100.00;98249.09;6094862;28;96324;-58
2024/02/25 03:22:27;;;;;;;;;71.20;58.00;;;;;9.17;100.00;98251.44;6088760;28;96292;-59
2024/02/25 03:25:30;;;;;;;;;70.00;55.60;;;;;9.22;100.00;98253.44;6034643;28;98397;-59
2024/02/25 03:28:33;;;;;;;;;72.00;57.00;;;;;9.22;100.00;98259.66;6051919;28;96577;-58
2024/02/25 03:31:36;;;;;;;;;72.60;60.00;;;;;9.23;100.00;98260.47;6066442;28;96783;-59
2024/02/25 03:34:40;;;;;;;;;72.40;58.00;;;;;9.10;100.00;98245.31;6086125;28;96359;-58
2024/02/25 03:37:45;;;;;;;;;72.50;59.25;;;;;9.24;100.00;98270.97;6099190;28;96276;-59
2024/02/25 03:40:48;;;;;;;;;71.40;55.40;;;;;9.29;100.00;98271.13;6088870;28;98376;-59
2024/02/25 03:43:51;;;;;;;;;72.00;57.00;;;;;9.30;100.00;98267.38;6074076;28;96290;-57
2024/02/25 03:46:54;;;;;;;;;75.00;58.67;;;;;9.25;100.00;98251.09;6075151;28;96412;-58
2024/02/25 03:49:57;;;;;;;;;73.00;58.50;;;;;9.39;100.00;98271.38;6092132;28;96320;-59
2024/02/25 03:53:02;;;;;;;;;70.00;55.00;;;;;9.46;100.00;98271.31;6066068;28;96597;-58
2024/02/25 03:56:06;;;;;;;;;71.00;56.80;;;;;9.46;100.00;98277.50;6073966;28;96424;-57
2024/02/25 03:59:09;;;;;;;;;76.00;60.00;;;;;9.48;100.00;98274.59;6073765;28;96883;-57
2024/02/25 04:02:12;;;;;;;;;72.25;55.75;;;;;9.46;100.00;98271.31;6046428;28;98374;-58
2024/02/25 04:05:15;;;;;;;;;68.40;53.00;;;;;9.44;100.00;98276.91;6083057;28;96144;-58
2024/02/25 04:08:20;;;;;;;;;74.00;58.25;;;;;9.37;100.00;98268.13;6093252;28;96458;-57
2024/02/25 04:11:23;;;;;;;;;68.20;54.20;;;;;9.30;100.00;98267.38;6074288;28;96297;-59
2024/02/25 04:14:27;;;;;;;;;66.80;52.00;;;;;9.22;100.00;98278.47;6075049;28;96287;-58
2024/02/25 04:17:31;;;;;;;;;70.25;53.25;;;;;9.12;100.00;98275.50;6073735;28;96387;-58
2024/02/25 04:20:35;;;;;;;;;68.40;52.00;;;;;9.06;100.00;98269.16;6074224;28;96291;-58
2024/02/25 04:23:41;;;;;;;;;65.00;50.00;;;;;8.93;100.00;98268.50;6050211;28;97031;-58
2024/02/25 04:26:46;;;;;;;;;63.00;50.40;;;;;8.72;100.00;98258.22;6067317;28;96317;-58
2024/02/25 04:29:49;;;;;;;;;65.40;50.00;;;;;8.59;100.00;98257.34;6021535;28;97236;-58
2024/02/25 04:32:52;;;;;;;;;63.60;49.40;;;;;8.51;100.00;98264.84;6029350;28;99081;-58
2024/02/25 04:35:56;;;;;;;;;63.60;50.00;;;;;8.43;100.00;98257.09;6044534;28;96219;-58
2024/02/25 04:39:01;;;;;;;;;64.00;50.00;;;;;8.43;100.00;98270.53;6044618;28;96449;-58
2024/02/25 04:42:04;;;;;;;;;67.25;52.00;;;;;8.39;100.00;98266.66;6062293;28;96546;-58
2024/02/25 04:45:09;;;;;;;;;62.40;48.60;;;;;8.34;100.00;98264.66;6065950;28;96431;-57
2024/02/25 04:48:12;;;;;;;;;65.20;50.00;;;;;8.27;100.00;98272.72;6043163;28;97119;-58
2024/02/25 04:51:15;;;;;;;;;66.40;50.00;;;;;8.27;100.00;98272.72;6040264;28;97470;-57
2024/02/25 04:54:20;;;;;;;;;65.75;51.00;;;;;8.18;100.00;98257.13;6044746;28;96495;-58
2024/02/25 04:57:23;;;;;;;;;64.80;51.00;;;;;8.17;100.00;98258.16;6062138;28;96558;-58
2024/02/25 05:00:26;;;;;;;;;70.00;53.00;;;;;8.14;100.00;98283.59;6050014;28;96886;-58
2024/02/25 05:03:30;;;;;;;;;67.75;53.00;;;;;8.12;100.00;98277.63;6030939;28;98556;-58
2024/02/25 05:06:33;;;;;;;;;67.40;53.40;;;;;8.15;100.00;98265.63;6040310;28;98448;-58
2024/02/25 05:09:38;;;;;;;;;70.80;51.00;;;;;8.14;100.00;98293.53;6029767;28;97744;-58
2024/02/25 05:12:42;;;;;;;;;67.00;51.40;;;;;8.02;100.00;98287.22;6043659;28;96420;-58
2024/02/25 05:15:45;;;;;;;;;68.00;51.40;;;;;8.01;100.00;98293.66;6024941;28;97811;-58
2024/02/25 05:18:48;;;;;;;;;69.00;53.00;;;;;8.05;100.00;98294.84;6026860;28;97212;-58
2024/02/25 05:21:53;;;;;;;;;69.80;52.40;;;;;8.12;100.00;98287.53;6036189;28;96900;-58
2024/02/25 05:24:57;;;;;;;;;69.40;52.00;;;;;8.16;100.00;98297.59;6030563;28;96585;-58
2024/02/25 05:28:00;;;;;;;;;67.00;52.60;;;;;7.97;100.00;98276.31;6042861;28;97929;-58
2024/02/25 05:31:14;;;;;;;;;72.00;54.00;;;;;8.04;100.00;98296.69;6033748;28;96432;-58
2024/02/25 05:34:17;;;;;;;;;70.00;54.00;;;;;8.11;100.00;98302.03;6073518;28;97219;-58
2024/02/25 05:37:22;;;;;;;;;70.00;53.80;;;;;8.16;100.00;98297.59;6070758;28;96437;-58
2024/02/25 05:40:27;;;;;;;;;67.00;52.00;;;;;8.25;100.00;98300.84;6047641;28;96855;-58
2024/02/25 05:43:30;;;;;;;;;65.75;51.25;;;;;8.32;100.00;98303.50;6064318;28;96333;-56
2024/02/25 05:46:33;;;;;;;;;68.60;52.00;;;;;8.36;100.00;98292.09;6071937;28;96356;-56
2024/02/25 05:49:38;;;;;;;;;66.67;52.00;;;;;8.46;100.00;98291.56;6058059;28;96362;-57
2024/02/25 05:52:42;;;;;;;;;69.25;54.00;;;;;8.55;100.00;98295.63;6076062;28;96371;-57
2024/02/25 05:55:47;;;;;;;;;66.00;50.00;;;;;8.58;100.00;98287.94;6063894;28;96475;-56
2024/02/25 05:58:50;;;;;;;;;65.50;51.00;;;;;8.66;100.00;98292.19;6066768;28;96345;-57
2024/02/25 06:01:53;;;;;;;;;65.00;51.00;;;;;8.73;100.00;98297.50;6065551;28;96358;-56
2024/02/25 06:04:58;;;;;;;;;63.00;49.00;;;;;8.74;100.00;98288.38;6050938;28;98641;-59
2024/02/25 06:08:01;;;;;;;;;63.20;49.60;;;;;8.73;100.00;98284.88;6051630;28;97142;-58
2024/02/25 06:11:06;;;;;;;;;64.75;49.75;;;;;8.81;100.00;98291.81;6071790;28;96303;-58
2024/02/25 06:14:09;;;;;;;;;61.80;48.60;;;;;8.84;100.00;98288.69;6056263;28;96363;-58
2024/02/25 06:17:12;;;;;;;;;63.60;49.80;;;;;8.66;100.00;98290.31;6063454;28;96336;-58
2024/02/25 06:20:15;;;;;;;;;60.60;47.60;;;;;8.37;100.00;98282.16;6055079;28;96756;-59
2024/02/25 06:23:21;;;;;;;;;65.00;49.60;;;;;8.43;100.00;98290.16;6072431;28;96323;-58
2024/02/25 06:26:26;;;;;;;;;62.20;49.00;;;;;8.51;100.00;98284.50;6072850;28;96298;-58
2024/02/25 06:29:29;;;;;;;;;63.80;49.20;;;;;8.65;100.00;98301.28;6072184;28;98094;-57
2024/02/25 06:32:33;;;;;;;;;62.00;50.00;;;;;8.53;100.00;98278.91;6072174;28;96395;-58
2024/02/25 06:35:36;;;;;;;;;64.00;49.20;;;;;8.60;100.00;98291.19;6072629;28;96324;-57
2024/02/25 06:38:39;;;;;;;;;62.20;48.00;;;;;8.56;100.00;98276.59;6078154;28;96949;-57
2024/02/25 06:41:43;;;;;;;;;62.40;48.20;;;;;8.79;100.00;98273.25;6056757;28;96417;-57
2024/02/25 06:44:47;;;;;;;;;63.40;49.00;;;;;8.82;100.00;98266.59;6023399;28;97060;-57
2024/02/25 06:47:50;;;;;;;;;61.33;48.00;;;;;9.30;100.00;98278.16;6024970;28;97899;-58
2024/02/25 06:50:53;;;;;;;;;62.20;48.00;;;;;9.92;100.00;98287.53;6042082;28;96967;-57
2024/02/25 06:53:57;;;;;;;;;65.80;50.00;;;;;10.43;100.00;98278.81;6042574;28;96270;-57
2024/02/25 06:57:02;;;;;;;;;63.00;49.25;;;;;10.85;100.00;98292.94;6042530;28;96346;-58
2024/02/25 07:00:07;;;;;;;;;66.00;50.00;;;;;11.09;100.00;98288.28;6042474;28;96579;-58
2024/02/25 07:03:11;;;;;;;;;63.20;50.00;;;;;11.09;100.00;98287.50;6043051;28;97582;-58
2024/02/25 07:06:15;;;;;;;;;62.00;48.80;;;;;11.03;100.00;98294.66;6041903;28;96154;-57
2024/02/25 07:09:18;;;;;;;;;62.40;48.40;;;;;11.41;100.00;98301.34;6041452;28;96434;-58
2024/02/25 07:12:23;;;;;;;;;63.80;50.40;;;;;11.93;100.00;98308.25;6043817;28;97247;-58
2024/02/25 07:15:26;;;;;;;;;59.50;46.00;;;;;12.70;100.00;98299.44;6041156;28;96593;-58
2024/02/25 07:18:29;;;;;;;;;57.75;45.00;;;;;13.49;100.00;98300.72;6039949;28;96485;-58
2024/02/25 07:21:32;;;;;;;;;56.00;45.00;;;;;14.37;100.00;98304.78;6043207;28;97033;-58
2024/02/25 07:24:37;;;;;;;;;59.50;47.00;;;;;15.35;100.00;98297.72;6041400;28;96415;-58
2024/02/25 07:27:41;;;;;;;;;56.60;44.80;;;;;17.12;100.00;98292.28;6036038;28;98599;-58
2024/02/25 07:30:44;;;;;;;;;57.40;44.00;;;;;19.31;100.00;98297.66;6041878;28;97663;-58
2024/02/25 07:33:50;;;;;;;;;58.00;46.00;;;;;20.07;100.00;98293.88;6049715;28;96459;-58
2024/02/25 07:36:53;;;;;;;;;62.20;47.60;;;;;20.49;100.00;98282.81;6053946;28;96440;-58
2024/02/25 07:39:56;;;;;;;;;61.00;48.00;;;;;21.42;100.00;98281.56;6052227;28;96334;-58
2024/02/25 07:43:02;;;;;;;;;58.75;45.50;;;;;23.06;100.00;98280.06;6049493;28;96564;-58
2024/02/25 07:46:06;;;;;;;;;61.00;46.25;;;;;24.98;100.00;98254.66;6052913;28;96426;-59
2024/02/25 07:49:09;;;;;;;;;56.00;46.00;;;;;27.64;84.82;98245.84;6048816;28;96410;-58
2024/02/25 07:52:13;;;;;;;;;57.20;45.00;;;;;30.41;72.12;98248.16;6055847;28;96558;-59
2024/02/25 07:55:17;;;;;;;;;56.00;44.60;;;;;32.89;63.05;98246.34;6075431;28;96329;-58
2024/02/25 07:58:21;;;;;;;;;53.00;44.00;;;;;34.56;53.58;98240.63;6066309;28;96490;-60
2024/02/25 08:01:24;;;;;;;;;55.40;44.00;;;;;36.02;49.14;98233.81;6077621;28;96722;-59
2024/02/25 08:04:27;;;;;;;;;55.67;45.00;;;;;37.42;46.42;98218.56;6069834;28;96730;-60
2024/02/25 08:07:31;;;;;;;;;56.00;44.00;;;;;38.53;43.44;98211.25;6070168;28;96266;-60
2024/02/25 08:10:36;;;;;;;;;55.40;44.00;;;;;39.62;40.02;98207.91;6069931;28;98152;-61
2024/02/25 08:13:40;;;;;;;;;53.00;43.00;;;;;40.60;38.48;98215.56;6069141;28;96328;-61
2024/02/25 08:16:43;;;;;;;;;52.40;43.00;;;;;41.34;36.44;98215.06;6069794;28;96426;-59
2024/02/25 08:19:47;;;;;;;;;54.00;44.00;;;;;41.82;36.23;98203.66;6078830;28;96315;-62
2024/02/25 08:22:50;;;;;;;;;55.00;44.00;;;;;42.34;34.80;98191.25;6087883;28;96399;-61
2024/02/25 08:25:53;;;;;;;;;53.00;44.00;;;;;43.03;35.04;98178.13;6068083;28;96441;-60
2024/02/25 08:28:57;;;;;;;;;53.00;44.00;;;;;43.54;32.91;98180.88;6058633;28;96491;-61
2024/02/25 08:32:00;;;;;;;;;57.00;46.00;;;;;44.10;31.49;98177.22;6070567;28;96523;-61
2024/02/25 08:35:06;;;;;;;;;57.50;46.00;;;;;44.54;30.09;98175.91;6064054;28;96180;-59
2024/02/25 08:38:10;;;;;;;;;61.00;48.00;;;;;45.04;29.56;98180.41;6075236;28;96774;-60
2024/02/25 08:41:13;;;;;;;;;56.00;46.00;;;;;45.23;29.15;98164.94;6065366;28;96427;-61
2024/02/25 08:44:17;;;;;;;;;59.40;47.20;;;;;45.68;29.43;98171.94;6070201;28;96270;-61
2024/02/25 08:47:20;;;;;;;;;59.50;47.50;;;;;45.73;27.17;98159.91;6081142;28;96409;-61
2024/02/25 08:50:23;;;;;;;;;55.00;43.60;;;;;46.05;27.26;98152.75;6061113;28;96788;-61
2024/02/25 08:53:26;;;;;;;;;55.40;44.00;;;;;46.35;25.86;98153.81;6079994;28;96298;-61
2024/02/25 08:56:30;;;;;;;;;54.80;43.60;;;;;46.25;27.29;98164.47;6074541;28;96831;-60
2024/02/25 08:59:34;;;;;;;;;54.33;43.00;;;;;46.36;26.38;98161.91;6067721;28;96468;-60
2024/02/25 09:02:37;;;;;;;;;53.00;42.00;;;;;46.82;26.63;98158.88;6069114;28;96235;-62
2024/02/25 09:05:41;;;;;;;;;51.40;42.60;;;;;47.04;25.91;98161.47;6073491;28;96342;-60
2024/02/25 09:08:44;;;;;;;;;49.00;40.00;;;;;46.71;26.39;98167.97;6071999;28;96243;-58
2024/02/25 09:11:47;;;;;;;;;47.00;40.00;;;;;46.68;25.62;98166.06;6062975;28;97455;-60
2024/02/25 09:14:52;;;;;;;;;47.00;39.00;;;;;47.07;25.73;98161.28;6071316;28;96608;-60
2024/02/25 09:17:57;;;;;;;;;48.00;39.20;;;;;46.87;23.83;98155.38;6061747;28;96420;-60
2024/02/25 09:21:01;;;;;;;;;49.00;40.00;;;;;47.37;25.81;98156.50;6060377;28;96486;-60
2024/02/25 09:24:04;;;;;;;;;47.60;39.00;;;;;47.20;25.47;98152.50;6061738;28;96587;-60
2024/02/25 09:27:08;;;;;;;;;48.20;38.80;;;;;47.53;25.21;98141.78;6069409;28;96141;-60
2024/02/25 09:30:15;;;;;;;;;47.60;39.60;;;;;47.86;24.44;98152.28;6069273;28;96488;-60
2024/02/25 09:33:19;;;;;;;;;48.00;39.00;;;;;48.29;24.59;98134.38;6069883;28;96449;-59
2024/02/25 09:36:24;;;;;;;;;47.60;40.00;;;;;48.60;24.68;98151.81;6075559;28;96282;-60
2024/02/25 09:39:27;;;;;;;;;49.50;41.00;;;;;48.80;24.27;98139.66;6073977;28;96396;-60
2024/02/25 09:42:35;;;;;;;;;48.00;40.00;;;;;49.02;23.69;98133.47;6075349;28;97329;-60
2024/02/25 09:45:43;;;;;;;;;49.40;41.40;;;;;49.21;24.00;98139.75;6066008;28;96405;-61
2024/02/25 09:48:50;;;;;;;;;47.40;39.00;;;;;49.16;23.89;98143.31;6059149;28;96542;-61
2024/02/25 09:51:54;;;;;;;;;47.20;38.60;;;;;49.19;23.34;98143.09;6059950;28;96760;-62
2024/02/25 09:54:59;;;;;;;;;49.50;41.00;;;;;49.36;23.53;98141.22;6062937;28;97739;-60
2024/02/25 09:58:02;;;;;;;;;49.00;40.00;;;;;49.63;23.24;98133.47;6057340;28;97441;-62
2024/02/25 10:01:06;;;;;;;;;47.00;38.50;;;;;49.66;22.92;98136.13;6057732;28;97213;-60
2024/02/25 10:04:11;;;;;;;;;39.60;35.00;;;;;48.99;22.76;98125.88;6045391;28;96274;-60
2024/02/25 10:07:15;;;;;;;;;46.00;37.50;;;;;48.81;23.11;98111.84;6067818;28;96253;-60
2024/02/25 10:10:18;;;;;;;;;41.20;33.80;;;;;48.57;22.36;98118.50;6064618;28;97617;-62
2024/02/25 10:13:21;;;;;;;;;36.00;32.00;;;;;48.40;22.51;98105.22;6050011;28;96697;-61
2024/02/25 10:16:25;;;;;;;;;35.00;31.00;;;;;48.05;22.99;98087.97;6039987;28;96534;-60
2024/02/25 10:19:29;;;;;;;;;27.80;27.20;;;;;48.27;22.99;98091.22;6032610;28;96454;-60
2024/02/25 10:22:32;;;;;;;;;29.00;27.00;;;;;47.79;22.37;98085.72;6034759;28;96852;-60
2024/02/25 10:25:36;;;;;;;;;25.00;24.00;;;;;47.43;21.82;98079.53;6047075;28;97117;-60
2024/02/25 10:28:39;;;;;;;;;24.00;22.00;;;;;47.18;22.71;98066.53;6042541;28;96835;-60
2024/02/25 10:31:58;;;;;;;;;21.00;20.75;;;;;46.42;23.55;98063.06;6046482;28;98460;-60
2024/02/25 10:35:01;;;;;;;;;19.00;17.00;;;;;47.09;23.50;98053.16;6046200;28;97721;-59
2024/02/25 10:38:05;;;;;;;;;17.60;17.00;;;;;47.32;22.20;98052.34;6051015;28;96531;-59
2024/02/25 10:41:10;;;;;;;;;17.80;17.20;;;;;47.61;22.15;98048.72;6050080;28;97261;-59
2024/02/25 10:44:17;;;;;;;;;17.50;17.00;;;;;47.64;22.62;98059.22;6049745;28;97457;-60
2024/02/25 10:47:23;;;;;;;;;17.00;16.00;;;;;48.10;22.37;98050.91;6046489;28;96317;-60
2024/02/25 10:50:30;;;;;;;;;12.25;12.00;;;;;48.22;21.73;98055.53;6039925;28;96704;-59
2024/02/25 10:53:33;;;;;;;;;13.00;12.00;;;;;48.12;21.27;98039.00;6042059;28;96950;-59
2024/02/25 10:56:38;;;;;;;;;13.00;13.00;;;;;47.28;22.14;98028.13;6040165;28;97363;-59
2024/02/25 10:59:43;;;;;;;;;9.00;9.00;;;;;46.34;21.03;98029.66;6036341;28;98382;-59
2024/02/25 11:02:48;;;;;;;;;10.00;10.00;;;;;46.14;22.36;98015.97;6046726;28;96610;-59
2024/02/25 11:05:51;;;;;;;;;9.00;9.00;;;;;45.67;21.91;98019.44;6034255;28;96562;-60
2024/02/25 11:09:02;;;;;;;;;7.40;6.00;;;;;44.67;20.31;98008.84;6049262;28;97520;-60
2024/02/25 11:12:22;;;;;;;;;4.50;3.75;;;;;43.83;20.23;97996.06;6050305;28;96890;-59
2024/02/25 11:15:29;;;;;;;;;9.00;8.25;;;;;43.71;22.60;97991.25;6052790;28;97855;-59
2024/02/25 11:18:33;;;;;;;;;8.00;7.00;;;;;44.24;22.50;97989.91;6052009;28;96816;-60
2024/02/25 11:21:37;;;;;;;;;6.00;5.00;;;;;43.97;21.56;97987.00;6043305;28;96615;-59
2024/02/25 11:24:47;;;;;;;;;6.50;6.50;;;;;43.98;21.50;97983.69;6065004;28;96343;-59
2024/02/25 11:27:58;;;;;;;;;7.40;7.00;;;;;43.75;22.63;97975.66;6072099;28;96551;-62
2024/02/25 11:31:02;;;;;;;;;6.60;6.60;;;;;42.59;22.40;97958.88;6075682;28;97684;-59
2024/02/25 11:34:07;;;;;;;;;7.00;6.00;;;;;42.43;23.26;97963.88;6071572;28;96089;-60
2024/02/25 11:37:17;;;;;;;;;7.60;7.60;;;;;42.39;24.20;97966.84;6070550;28;96152;-60
2024/02/25 11:40:20;;;;;;;;;9.00;8.00;;;;;42.41;24.05;97955.06;6072220;28;97248;-60
2024/02/25 11:43:25;;;;;;;;;8.00;8.00;;;;;42.47;24.80;97964.59;6075613;28;96348;-59
2024/02/25 11:46:28;;;;;;;;;9.00;8.00;;;;;42.53;24.11;97962.72;6048655;28;96578;-61
2024/02/25 11:49:34;;;;;;;;;8.00;7.00;;;;;42.51;22.06;97953.91;6062896;28;96257;-59
2024/02/25 11:52:37;;;;;;;;;5.60;5.00;;;;;42.07;22.02;97947.28;6065718;28;97587;-58
2024/02/25 11:55:41;;;;;;;;;4.00;4.00;;;;;40.75;23.12;97949.63;6071254;28;96371;-58
2024/02/25 11:58:44;;;;;;;;;5.00;5.00;;;;;40.35;24.03;97940.56;6081734;28;96441;-59
2024/02/25 12:01:48;;;;;;;;;5.00;5.00;;;;;39.30;23.31;97943.38;6076571;28;96270;-59
2024/02/25 12:04:57;;;;;;;;;5.20;5.20;;;;;37.88;24.29;97944.34;6059416;28;96863;-59
2024/02/25 12:08:01;;;;;;;;;4.00;4.00;;;;;37.27;26.48;97939.59;6074413;28;96425;-58
2024/02/25 12:11:04;;;;;;;;;5.00;4.00;;;;;37.28;26.58;97932.75;6076116;28;96219;-58
2024/02/25 12:14:17;;;;;;;;;4.00;4.00;;;;;37.10;26.87;97926.56;6070756;28;97032;-58
2024/02/25 12:17:22;;;;;;;;;4.40;4.40;;;;;34.66;27.63;97936.69;6070429;28;97142;-58
2024/02/25 12:20:27;;;;;;;;;4.20;4.00;;;;;33.01;29.20;97924.91;6072620;28;96485;-59
2024/02/25 12:23:31;;;;;;;;;4.80;4.00;;;;;30.95;31.89;97933.47;6083797;28;96359;-57
2024/02/25 12:26:48;;;;;;;;;4.40;4.00;;;;;30.05;34.48;97921.44;6070677;28;96098;-57
2024/02/25 12:29:52;;;;;;;;;4.67;4.00;;;;;29.01;38.42;97926.25;6086422;23;96439;-57
2024/02/25 12:32:55;;;;;;;;;6.00;6.00;;;;;28.72;39.37;97924.06;6058583;28;96960;-55
2024/02/25 12:36:01;;;;;;;;;4.60;4.60;;;;;27.60;40.94;97920.19;6050776;28;96664;-56
2024/02/25 12:39:10;;;;;;;;;6.00;5.00;;;;;27.29;43.40;97913.41;6043881;28;96382;-54
2024/02/25 12:42:15;;;;;;;;;4.00;4.00;;;;;27.15;46.36;97916.59;6049374;28;96818;-55
2024/02/25 12:45:19;;;;;;;;;7.75;7.00;;;;;26.96;48.64;97922.00;6053295;28;96271;-54
2024/02/25 12:48:22;;;;;;;;;10.00;9.00;;;;;26.82;50.03;97913.25;6046220;28;96985;-53
2024/02/25 12:51:27;;;;;;;;;9.60;8.60;;;;;26.60;51.82;97909.06;6055706;28;96284;-56
2024/02/25 12:54:30;;;;;;;;;11.40;11.00;;;;;26.11;53.96;97908.31;6050974;28;96570;-55
2024/02/25 12:57:35;;;;;;;;;9.00;8.00;;;;;25.61;54.70;97903.13;6038624;28;96405;-55
2024/02/25 13:00:38;;;;;;;;;10.00;9.00;;;;;24.99;59.63;97892.28;6042220;28;96625;-54
2024/02/25 13:03:42;;;;;;;;;10.00;10.00;;;;;24.85;60.62;97889.00;6039676;28;96465;-54
2024/02/25 13:06:46;;;;;;;;;9.00;9.00;;;;;24.65;61.51;97892.59;6038595;28;96372;-55
2024/02/25 13:09:54;;;;;;;;;10.50;10.00;;;;;24.49;62.14;97898.69;6051921;28;96271;-54
2024/02/25 13:12:57;;;;;;;;;12.25;11.25;;;;;24.43;62.95;97904.78;6050279;28;96768;-56
2024/02/25 13:16:01;;;;;;;;;11.00;10.75;;;;;24.24;62.30;97898.91;6060056;28;97493;-56
2024/02/25 13:19:04;;;;;;;;;9.00;9.00;;;;;24.03;63.57;97896.91;6046191;28;96807;-55
2024/02/25 13:22:10;;;;;;;;;9.00;9.00;;;;;23.98;64.52;97899.03;6050160;28;97504;-54
2024/02/25 13:25:16;;;;;;;;;9.00;8.00;;;;;23.88;64.74;97889.22;6050812;28;96282;-55
2024/02/25 13:28:19;;;;;;;;;9.00;8.25;;;;;23.79;64.25;97893.16;6049255;28;96321;-54
2024/02/25 13:31:22;;;;;;;;;9.00;8.00;;;;;23.61;65.06;97895.97;6048305;28;96376;-56
2024/02/25 13:34:25;;;;;;;;;10.00;9.00;;;;;23.16;67.64;97878.34;6050183;28;96901;-56
2024/02/25 13:37:30;;;;;;;;;9.00;9.00;;;;;22.61;67.80;97892.78;6053019;28;96396;-55
2024/02/25 13:40:33;;;;;;;;;9.00;8.00;;;;;22.54;67.37;97892.44;6050484;28;96481;-55
2024/02/25 13:43:38;;;;;;;;;8.00;8.00;;;;;22.52;68.29;97891.97;6043264;28;97041;-58
2024/02/25 13:46:43;;;;;;;;;10.00;9.00;;;;;22.48;67.60;97898.44;6040242;28;96515;-58
2024/02/25 13:49:46;;;;;;;;;8.00;7.00;;;;;22.41;68.74;97893.41;6036420;28;97444;-58
2024/02/25 13:52:50;;;;;;;;;7.00;7.00;;;;;22.28;69.50;97900.69;6038539;28;97104;-58
2024/02/25 13:55:54;;;;;;;;;9.25;8.00;;;;;21.87;73.30;97903.00;6037342;28;96733;-58
2024/02/25 13:58:57;;;;;;;;;7.00;6.00;;;;;21.34;71.74;97900.38;6039933;28;96948;-58
2024/02/25 14:02:00;;;;;;;;;4.50;4.50;;;;;21.25;66.34;97899.53;6023650;28;96279;-57
2024/02/25 14:05:05;;;;;;;;;8.00;7.00;;;;;21.10;68.96;97898.78;6040055;28;96796;-57
2024/02/25 14:08:11;;;;;;;;;3.60;3.60;;;;;21.08;62.75;97898.28;6039781;28;96735;-59
2024/02/25 14:11:14;;;;;;;;;2.00;2.00;;;;;20.95;59.36;97892.88;6040779;28;96641;-57